createdAt,value
2019-04-06T00:00:38.919Z,13.10
2019-04-06T00:03:08.644Z,13.20
2019-04-06T00:05:38.310Z,13.27
2019-04-06T00:08:07.994Z,13.23
2019-04-06T00:10:37.735Z,12.70
2019-04-06T00:13:07.470Z,13.87
2019-04-06T00:15:37.274Z,13.77
2019-04-06T00:18:07.030Z,12.73
2019-04-06T00:20:36.689Z,12.80
2019-04-06T00:23:06.362Z,13.13
2019-04-06T00:25:44.409Z,13.23
2019-04-06T00:28:07.746Z,13.27
2019-04-06T00:30:42.034Z,13.30
2019-04-06T00:33:19.456Z,13.37
2019-04-06T00:35:49.180Z,13.27
2019-04-06T00:38:18.867Z,13.33
2019-04-06T00:40:48.509Z,13.07
2019-04-06T00:43:18.150Z,13.47
2019-04-06T00:45:47.804Z,13.07
2019-04-06T00:48:17.526Z,14.07
2019-04-06T00:50:47.165Z,13.43
2019-04-06T00:53:16.802Z,13.63
2019-04-06T00:55:55.075Z,14.00
2019-04-06T00:58:17.772Z,14.17
2019-04-06T01:00:47.455Z,13.53
2019-04-06T01:03:18.591Z,14.23
2019-04-06T01:05:48.398Z,13.97
2019-04-06T01:08:18.076Z,14.27
2019-04-06T01:10:47.816Z,13.07
2019-04-06T01:13:17.525Z,14.40
2019-04-06T01:15:47.147Z,14.03
2019-04-06T01:18:16.875Z,13.67
2019-04-06T01:20:46.558Z,13.23
2019-04-06T01:23:16.239Z,13.13
2019-04-06T01:25:45.942Z,13.43
2019-04-06T01:28:15.672Z,14.20
2019-04-06T01:30:45.351Z,14.40
2019-04-06T01:33:15.021Z,14.57
2019-04-06T01:35:44.676Z,15.03
2019-04-06T01:38:14.410Z,14.07
2019-04-06T01:40:44.160Z,14.07
2019-04-06T01:43:13.932Z,14.53
2019-04-06T01:45:43.652Z,13.77
2019-04-06T01:48:13.319Z,13.20
2019-04-06T01:50:43.064Z,13.23
2019-04-06T01:53:12.675Z,13.87
2019-04-06T01:55:42.346Z,13.60
2019-04-06T01:58:12.036Z,14.17
2019-04-06T02:00:43.278Z,13.90
2019-04-06T02:03:12.964Z,15.43
2019-04-06T02:05:42.680Z,13.87
2019-04-06T02:08:13.363Z,14.97
2019-04-06T02:10:43.066Z,14.30
2019-04-06T02:13:13.277Z,13.80
2019-04-06T02:15:42.957Z,13.77
2019-04-06T02:18:12.653Z,14.60
2019-04-06T02:20:42.238Z,13.63
2019-04-06T02:23:11.900Z,13.00
2019-04-06T02:25:41.627Z,13.77
2019-04-06T02:28:11.237Z,14.27
2019-04-06T02:30:51.259Z,13.50
2019-04-06T02:33:25.282Z,14.20
2019-04-06T02:36:11.512Z,15.80
2019-04-06T02:38:43.794Z,13.90
2019-04-06T02:41:15.047Z,13.20
2019-04-06T02:43:44.714Z,13.80
2019-04-06T02:46:14.449Z,14.40
2019-04-06T02:48:44.232Z,14.23
2019-04-06T02:51:13.958Z,14.13
2019-04-06T02:53:43.575Z,14.77
2019-04-06T02:56:13.314Z,15.17
2019-04-06T02:58:43.050Z,15.13
2019-04-06T03:01:12.693Z,14.30
2019-04-06T03:03:42.444Z,14.57
2019-04-06T03:06:12.098Z,14.60
2019-04-06T03:08:41.781Z,14.60
2019-04-06T03:11:11.448Z,14.20
2019-04-06T03:13:41.133Z,14.00
2019-04-06T03:16:10.800Z,13.90
2019-04-06T03:18:40.488Z,14.20
2019-04-06T03:21:10.141Z,14.33
2019-04-06T03:23:50.477Z,14.33
2019-04-06T03:26:12.293Z,14.27
2019-04-06T03:28:41.971Z,14.40
2019-04-06T03:31:11.713Z,15.00
2019-04-06T03:33:41.464Z,14.00
2019-04-06T03:36:11.289Z,13.90
2019-04-06T03:38:41.959Z,13.50
2019-04-06T03:41:11.743Z,14.00
2019-04-06T03:43:42.383Z,14.23
2019-04-06T03:46:12.057Z,14.20
2019-04-06T03:48:42.020Z,14.87
2019-04-06T03:51:11.916Z,15.77
2019-04-06T03:53:41.650Z,14.17
2019-04-06T03:56:11.389Z,14.30
2019-04-06T03:58:41.050Z,15.47
2019-04-06T04:01:10.821Z,15.47
2019-04-06T04:03:40.547Z,14.60
2019-04-06T04:06:10.148Z,15.70
2019-04-06T04:08:39.951Z,16.17
2019-04-06T04:11:09.729Z,15.27
2019-04-06T04:13:40.296Z,15.70
2019-04-06T04:16:10.030Z,16.10
2019-04-06T04:18:39.696Z,16.53
2019-04-06T04:21:09.644Z,16.10
2019-04-06T04:23:39.951Z,15.97
2019-04-06T04:26:11.134Z,15.80
2019-04-06T04:28:40.791Z,15.83
2019-04-06T04:31:28.922Z,16.63
2019-04-06T04:34:01.300Z,15.83
2019-04-06T04:36:31.113Z,16.27
2019-04-06T04:39:00.810Z,17.23
2019-04-06T04:41:30.963Z,16.33
2019-04-06T04:44:00.734Z,16.57
2019-04-06T04:46:30.410Z,16.30
2019-04-06T04:49:00.082Z,16.63
2019-04-06T04:51:29.871Z,15.97
2019-04-06T04:53:59.428Z,15.90
2019-04-06T04:56:29.108Z,15.87
2019-04-06T04:58:58.848Z,15.87
2019-04-06T05:01:28.589Z,15.73
2019-04-06T05:03:58.337Z,16.20
2019-04-06T05:06:27.998Z,15.80
2019-04-06T05:08:57.652Z,15.97
2019-04-06T05:11:27.317Z,15.73
2019-04-06T05:14:33.432Z,15.63
2019-04-06T05:17:03.100Z,15.67
2019-04-06T05:19:32.752Z,15.83
2019-04-06T05:22:02.543Z,16.17
2019-04-06T05:24:33.342Z,16.40
2019-04-06T05:27:03.077Z,16.37
2019-04-06T05:29:33.331Z,15.43
2019-04-06T05:32:03.406Z,16.00
2019-04-06T05:34:33.123Z,16.00
2019-04-06T05:37:02.858Z,14.43
2019-04-06T05:39:32.592Z,16.40
2019-04-06T05:42:02.728Z,14.87
2019-04-06T05:44:32.531Z,15.37
2019-04-06T05:47:02.208Z,14.93
2019-04-06T05:49:32.089Z,15.33
2019-04-06T05:52:01.760Z,15.57
2019-04-06T05:54:31.484Z,15.60
2019-04-06T05:57:01.140Z,15.43
2019-04-06T05:59:30.822Z,15.73
2019-04-06T06:02:00.597Z,15.63
2019-04-06T06:04:31.258Z,16.27
2019-04-06T06:07:00.997Z,15.07
2019-04-06T06:09:30.930Z,14.97
2019-04-06T06:12:00.674Z,15.47
2019-04-06T06:14:30.454Z,14.23
2019-04-06T06:17:00.105Z,14.53
2019-04-06T06:19:29.770Z,15.80
2019-04-06T06:21:59.516Z,15.13
2019-04-06T06:24:29.238Z,14.53
2019-04-06T06:26:58.911Z,14.60
2019-04-06T06:29:28.715Z,15.57
2019-04-06T06:31:58.380Z,15.13
2019-04-06T06:34:28.176Z,15.50
2019-04-06T06:36:57.799Z,15.27
2019-04-06T06:39:27.491Z,15.20
2019-04-06T06:41:58.855Z,15.07
2019-04-06T06:44:28.590Z,15.03
2019-04-06T06:46:58.334Z,14.00
2019-04-06T06:49:27.982Z,14.77
2019-04-06T06:51:57.665Z,15.30
2019-04-06T06:54:28.574Z,14.33
2019-04-06T06:56:58.370Z,14.83
2019-04-06T06:59:28.038Z,15.20
2019-04-06T07:01:57.618Z,14.37
2019-04-06T07:04:27.258Z,14.57
2019-04-06T07:06:56.896Z,13.80
2019-04-06T07:09:26.548Z,14.40
2019-04-06T07:11:56.197Z,14.47
2019-04-06T07:14:26.044Z,14.50
2019-04-06T07:16:55.650Z,14.70
2019-04-06T07:19:25.299Z,14.53
2019-04-06T07:21:54.974Z,14.47
2019-04-06T07:24:24.560Z,14.00
2019-04-06T07:26:54.289Z,14.83
2019-04-06T07:29:24.918Z,14.47
2019-04-06T07:31:54.647Z,14.70
2019-04-06T07:34:24.293Z,13.23
2019-04-06T07:36:53.960Z,14.60
2019-04-06T07:39:23.620Z,13.07
2019-04-06T07:41:53.208Z,13.90
2019-04-06T07:44:22.895Z,13.93
2019-04-06T07:46:52.677Z,13.23
2019-04-06T07:49:22.541Z,13.50
2019-04-06T07:51:52.402Z,13.73
2019-04-06T07:54:22.064Z,13.50
2019-04-06T07:56:51.710Z,12.80
2019-04-06T07:59:21.338Z,12.67
2019-04-06T08:01:51.005Z,13.77
2019-04-06T08:04:20.786Z,13.20
2019-04-06T08:06:50.426Z,14.20
2019-04-06T08:09:20.147Z,13.00
2019-04-06T08:11:49.951Z,13.30
2019-04-06T08:14:19.717Z,13.57
2019-04-06T08:16:49.457Z,13.10
2019-04-06T08:19:19.090Z,13.23
2019-04-06T08:21:48.694Z,13.50
2019-04-06T08:24:18.389Z,12.93
2019-04-06T08:26:48.108Z,12.40
2019-04-06T08:29:17.760Z,13.77
2019-04-06T08:31:47.432Z,11.67
2019-04-06T08:34:17.080Z,12.53
2019-04-06T08:36:46.831Z,11.70
2019-04-06T08:39:16.490Z,11.40
2019-04-06T08:41:46.212Z,12.37
2019-04-06T08:44:15.906Z,12.13
2019-04-06T08:46:45.550Z,12.37
2019-04-06T08:49:15.226Z,11.73
2019-04-06T08:51:44.838Z,11.80
2019-04-06T08:54:14.550Z,11.57
2019-04-06T08:56:44.730Z,12.57
2019-04-06T08:59:14.368Z,11.27
2019-04-06T09:01:45.154Z,11.10
2019-04-06T09:04:14.814Z,11.97
2019-04-06T09:06:44.552Z,11.37
2019-04-06T09:09:14.270Z,12.30
2019-04-06T09:11:43.974Z,11.10
2019-04-06T09:14:13.628Z,11.33
2019-04-06T09:16:43.430Z,11.27
2019-04-06T09:19:13.039Z,11.93
2019-04-06T09:21:42.662Z,11.93
2019-04-06T09:24:12.315Z,11.67
2019-04-06T09:26:42.003Z,11.23
2019-04-06T09:29:22.558Z,10.70
2019-04-06T09:31:43.045Z,12.00
2019-04-06T09:34:31.984Z,11.80
2019-04-06T09:37:01.853Z,11.93
2019-04-06T09:39:31.682Z,10.73
2019-04-06T09:42:01.451Z,11.60
2019-04-06T09:44:44.611Z,11.70
2019-04-06T09:47:15.868Z,11.50
2019-04-06T09:49:47.276Z,11.53
2019-04-06T09:52:36.959Z,11.40
2019-04-06T09:55:11.509Z,11.53
2019-04-06T09:57:54.829Z,11.47
2019-04-06T10:00:26.289Z,12.03
2019-04-06T10:03:01.262Z,12.07
2019-04-06T10:05:38.589Z,11.87
2019-04-06T10:08:24.938Z,11.43
2019-04-06T10:11:14.498Z,10.87
2019-04-06T10:13:51.960Z,11.43
2019-04-06T10:16:32.503Z,11.20
2019-04-06T10:19:06.871Z,11.70
2019-04-06T10:21:56.374Z,10.63
2019-04-06T10:24:43.932Z,11.30
2019-04-06T10:27:31.693Z,12.13
2019-04-06T10:30:03.267Z,11.97
2019-04-06T10:32:40.713Z,12.27
2019-04-06T10:35:21.208Z,11.47
2019-04-06T10:37:55.496Z,12.17
2019-04-06T10:40:33.764Z,11.60
2019-04-06T10:43:17.063Z,10.93
2019-04-06T10:46:00.391Z,12.33
2019-04-06T10:48:34.862Z,11.00
2019-04-06T10:51:18.407Z,11.63
2019-04-06T10:54:05.848Z,11.27
2019-04-06T10:56:43.030Z,12.07
2019-04-06T10:59:17.231Z,12.50
2019-04-06T11:01:57.826Z,9.73
2019-04-06T11:04:35.002Z,11.37
2019-04-06T11:07:22.412Z,11.63
2019-04-06T11:09:53.910Z,11.50
2019-04-06T11:12:43.529Z,10.73
2019-04-06T11:15:14.782Z,11.50
2019-04-06T11:17:57.637Z,11.77
2019-04-06T11:20:41.101Z,11.10
2019-04-06T11:23:15.144Z,11.50
2019-04-06T11:25:46.986Z,10.83
2019-04-06T11:28:21.264Z,11.07
2019-04-06T11:31:08.880Z,10.63
2019-04-06T11:33:45.941Z,12.03
2019-04-06T11:36:26.301Z,12.00
2019-04-06T11:38:57.495Z,11.57
2019-04-06T11:41:45.564Z,11.00
2019-04-06T11:44:16.968Z,12.00
2019-04-06T11:47:06.583Z,11.93
2019-04-06T11:49:56.260Z,11.43
2019-04-06T11:52:45.342Z,11.13
2019-04-06T11:55:16.581Z,12.03
2019-04-06T11:58:04.329Z,11.90
2019-04-06T12:00:35.753Z,10.77
2019-04-06T12:03:07.026Z,11.83
2019-04-06T12:05:44.993Z,11.03
2019-04-06T12:08:16.295Z,12.63
2019-04-06T12:11:06.279Z,12.77
2019-04-06T12:13:37.834Z,11.60
2019-04-06T12:16:15.080Z,11.43
2019-04-06T12:18:49.271Z,12.13
2019-04-06T12:21:23.296Z,12.77
2019-04-06T12:24:00.574Z,11.53
2019-04-06T12:26:41.038Z,11.43
2019-04-06T12:29:16.579Z,10.83
2019-04-06T12:32:04.642Z,12.23
2019-04-06T12:34:38.862Z,12.50
2019-04-06T12:37:16.167Z,12.13
2019-04-06T12:40:05.750Z,12.37
2019-04-06T12:42:42.922Z,11.43
2019-04-06T12:45:17.142Z,11.93
2019-04-06T12:47:48.388Z,12.23
2019-04-06T12:50:35.154Z,11.90
2019-04-06T12:53:21.652Z,12.47
2019-04-06T12:55:55.799Z,13.40
2019-04-06T12:58:27.082Z,11.67
2019-04-06T13:01:07.471Z,13.37
2019-04-06T13:03:38.998Z,13.13
2019-04-06T13:06:15.975Z,11.80
2019-04-06T13:08:53.174Z,11.97
2019-04-06T13:11:24.774Z,12.50
2019-04-06T13:14:02.057Z,12.77
2019-04-06T13:16:33.414Z,12.57
2019-04-06T13:19:13.821Z,12.50
2019-04-06T13:21:54.163Z,11.90
2019-04-06T13:24:25.775Z,12.60
2019-04-06T13:27:02.837Z,13.10
2019-04-06T13:29:39.955Z,12.30
2019-04-06T13:32:27.704Z,12.33
2019-04-06T13:35:04.716Z,11.47
2019-04-06T13:37:51.435Z,11.87
2019-04-06T13:40:38.256Z,11.23
2019-04-06T13:43:15.552Z,12.40
2019-04-06T13:45:49.572Z,12.00
2019-04-06T13:48:21.284Z,12.00
2019-04-06T13:50:56.586Z,13.37
2019-04-06T13:53:44.069Z,12.93
2019-04-06T13:56:18.130Z,12.70
2019-04-06T13:58:53.208Z,12.53
2019-04-06T14:01:27.410Z,12.47
2019-04-06T14:04:01.409Z,12.43
2019-04-06T14:06:32.644Z,12.37
2019-04-06T14:09:22.412Z,12.40
2019-04-06T14:11:53.775Z,13.07
2019-04-06T14:14:24.970Z,11.57
2019-04-06T14:16:57.528Z,12.90
2019-04-06T14:19:37.758Z,13.07
2019-04-06T14:22:12.013Z,12.33
2019-04-06T14:24:43.196Z,12.37
2019-04-06T14:27:26.553Z,12.80
2019-04-06T14:30:13.810Z,13.27
2019-04-06T14:32:54.146Z,12.87
2019-04-06T14:35:40.484Z,12.50
2019-04-06T14:38:21.091Z,11.87
2019-04-06T14:41:01.325Z,12.57
2019-04-06T14:43:32.621Z,13.00
2019-04-06T14:46:04.221Z,12.97
2019-04-06T14:48:51.798Z,12.27
2019-04-06T14:51:22.989Z,13.83
2019-04-06T14:54:12.586Z,13.23
2019-04-06T14:56:46.867Z,12.73
2019-04-06T14:59:24.615Z,12.83
2019-04-06T15:02:05.075Z,13.00
2019-04-06T15:04:51.231Z,13.17
2019-04-06T15:07:22.607Z,12.80
2019-04-06T15:09:57.970Z,12.20
2019-04-06T15:12:32.124Z,12.40
2019-04-06T15:15:15.419Z,13.10
2019-04-06T15:17:49.662Z,11.67
2019-04-06T15:20:20.954Z,12.60
2019-04-06T15:23:04.408Z,12.10
2019-04-06T15:25:45.018Z,13.27
2019-04-06T15:28:22.070Z,13.30
2019-04-06T15:30:54.301Z,12.10
2019-04-06T15:33:40.553Z,13.30
2019-04-06T15:36:23.883Z,13.70
2019-04-06T15:39:01.029Z,12.40
2019-04-06T15:41:36.994Z,13.97
2019-04-06T15:44:20.337Z,13.60
2019-04-06T15:46:54.545Z,13.77
2019-04-06T15:49:28.584Z,13.33
2019-04-06T15:52:18.242Z,14.40
2019-04-06T15:54:55.377Z,13.90
2019-04-06T15:57:42.038Z,14.20
2019-04-06T16:00:19.584Z,13.63
2019-04-06T16:02:57.069Z,14.13
2019-04-06T16:05:32.148Z,14.20
2019-04-06T16:08:19.794Z,13.10
2019-04-06T16:11:03.248Z,13.97
2019-04-06T16:13:48.782Z,13.20
2019-04-06T16:16:37.060Z,13.20
2019-04-06T16:19:11.338Z,13.57
2019-04-06T16:21:51.697Z,13.13
2019-04-06T16:24:35.025Z,12.83
2019-04-06T16:27:15.205Z,13.10
2019-04-06T16:29:54.017Z,14.30
2019-04-06T16:32:34.942Z,13.07
2019-04-06T16:35:12.686Z,14.43
2019-04-06T16:37:44.172Z,15.13
2019-04-06T16:40:16.402Z,13.93
2019-04-06T16:42:59.735Z,14.13
2019-04-06T16:45:34.226Z,14.57
2019-04-06T16:48:19.036Z,14.77
2019-04-06T16:50:50.643Z,14.70
2019-04-06T16:53:38.767Z,14.83
2019-04-06T16:56:18.460Z,14.53
2019-04-06T16:59:04.822Z,13.93
2019-04-06T17:01:38.838Z,14.63
2019-04-06T17:04:26.870Z,15.03
2019-04-06T17:07:10.014Z,15.13
2019-04-06T17:09:47.623Z,14.17
2019-04-06T17:12:36.941Z,14.83
2019-04-06T17:15:25.065Z,14.33
2019-04-06T17:17:56.394Z,14.33
2019-04-06T17:20:43.920Z,14.70
2019-04-06T17:23:18.206Z,14.83
2019-04-06T17:25:50.501Z,14.93
2019-04-06T17:28:39.865Z,16.30
2019-04-06T17:31:17.891Z,15.33
2019-04-06T17:34:04.996Z,15.20
2019-04-06T17:36:49.155Z,15.30
2019-04-06T17:39:20.606Z,15.47
2019-04-06T17:41:57.723Z,15.13
2019-04-06T17:44:29.007Z,15.03
2019-04-06T17:47:00.476Z,15.93
2019-04-06T17:49:34.730Z,16.13
2019-04-06T17:52:22.302Z,14.30
2019-04-06T17:54:53.650Z,14.93
2019-04-06T17:57:36.855Z,14.90
2019-04-06T18:00:26.305Z,14.37
2019-04-06T18:03:15.842Z,14.37
2019-04-06T18:06:05.422Z,14.73
2019-04-06T18:08:39.706Z,14.47
2019-04-06T18:11:11.108Z,14.53
2019-04-06T18:13:42.502Z,13.80
2019-04-06T18:16:12.053Z,14.33
2019-04-06T18:18:41.948Z,14.17
2019-04-06T18:21:11.625Z,13.43
2019-04-06T18:23:41.374Z,13.93
2019-04-06T18:26:11.412Z,14.37
2019-04-06T18:28:41.085Z,13.57
2019-04-06T18:31:28.504Z,13.40
2019-04-06T18:33:58.175Z,14.23
2019-04-06T18:36:35.639Z,13.87
2019-04-06T18:39:11.568Z,14.20
2019-04-06T18:41:41.288Z,14.00
2019-04-06T18:44:11.222Z,13.50
2019-04-06T18:46:40.964Z,13.63
2019-04-06T18:49:10.945Z,14.50
2019-04-06T18:51:41.007Z,14.43
2019-04-06T18:54:10.928Z,14.20
2019-04-06T18:56:40.628Z,13.73
2019-04-06T18:59:10.500Z,14.70
2019-04-06T19:01:40.413Z,13.60
2019-04-06T19:04:10.474Z,14.33
2019-04-06T19:06:40.308Z,14.13
2019-04-06T19:09:20.526Z,13.67
2019-04-06T19:11:52.866Z,14.50
2019-04-06T19:14:12.556Z,13.83
2019-04-06T19:16:42.185Z,13.67
2019-04-06T19:19:11.881Z,13.87
2019-04-06T19:21:41.517Z,15.03
2019-04-06T19:24:11.244Z,13.90
2019-04-06T19:26:41.091Z,14.23
2019-04-06T19:29:10.901Z,14.33
2019-04-06T19:31:40.980Z,13.37
2019-04-06T19:34:11.678Z,14.53
2019-04-06T19:36:41.423Z,14.37
2019-04-06T19:39:13.872Z,15.03
2019-04-06T19:41:43.540Z,16.60
2019-04-06T19:44:13.407Z,14.63
2019-04-06T19:46:43.335Z,14.20
2019-04-06T19:49:13.048Z,14.40
2019-04-06T19:51:43.007Z,14.40
2019-04-06T19:54:12.997Z,14.00
2019-04-06T19:56:42.940Z,14.77
2019-04-06T19:59:13.673Z,13.17
2019-04-06T20:01:43.428Z,13.57
2019-04-06T20:04:13.086Z,13.97
2019-04-06T20:06:42.834Z,14.70
2019-04-06T20:09:13.325Z,14.53
2019-04-06T20:11:43.156Z,13.87
2019-04-06T20:14:12.930Z,14.03
2019-04-06T20:16:43.062Z,13.33
2019-04-06T20:19:12.762Z,14.40
2019-04-06T20:21:42.425Z,13.50
2019-04-06T20:24:12.102Z,13.23
2019-04-06T20:26:41.764Z,13.63
2019-04-06T20:29:11.606Z,14.07
2019-04-06T20:31:41.730Z,14.63
2019-04-06T20:34:11.873Z,13.17
2019-04-06T20:36:41.948Z,14.33
2019-04-06T20:39:11.688Z,15.17
2019-04-06T20:41:41.565Z,14.33
2019-04-06T20:44:11.156Z,14.00
2019-04-06T20:46:40.998Z,13.50
2019-04-06T20:49:10.874Z,13.83
2019-04-06T20:51:40.575Z,13.53
2019-04-06T20:54:10.736Z,14.37
2019-04-06T20:56:52.467Z,14.57
2019-04-06T20:59:11.949Z,14.40
2019-04-06T21:01:41.774Z,15.27
2019-04-06T21:04:12.032Z,13.90
2019-04-06T21:06:41.819Z,12.43
2019-04-06T21:09:12.932Z,12.87
2019-04-06T21:11:42.573Z,13.37
2019-04-06T21:14:12.870Z,12.60
2019-04-06T21:16:42.614Z,17.63
2019-04-06T21:19:12.554Z,18.93
2019-04-06T21:21:42.806Z,16.50
2019-04-06T21:24:12.501Z,14.10
2019-04-06T21:26:42.353Z,13.90
2019-04-06T21:29:12.458Z,13.87
2019-04-06T21:31:42.198Z,13.40
2019-04-06T21:34:14.478Z,13.43
2019-04-06T21:36:43.109Z,13.63
2019-04-06T21:39:13.295Z,14.33
2019-04-06T21:41:43.010Z,13.27
2019-04-06T21:44:12.837Z,13.90
2019-04-06T21:46:42.522Z,14.10
2019-04-06T21:49:12.254Z,13.60
2019-04-06T21:51:42.071Z,13.03
2019-04-06T21:54:11.751Z,13.27
2019-04-06T21:56:41.337Z,13.73
2019-04-06T21:59:11.112Z,14.43
2019-04-06T22:01:41.479Z,13.30
2019-04-06T22:04:22.876Z,14.23
2019-04-06T22:06:42.587Z,13.93
2019-04-06T22:09:12.806Z,14.00
2019-04-06T22:11:42.502Z,12.93
2019-04-06T22:14:12.481Z,13.73
2019-04-06T22:16:43.067Z,13.23
2019-04-06T22:19:12.841Z,13.83
2019-04-06T22:21:42.945Z,14.23
2019-04-06T22:24:12.511Z,14.80
2019-04-06T22:26:42.760Z,13.23
2019-04-06T22:29:12.850Z,13.93
2019-04-06T22:31:42.563Z,12.60
2019-04-06T22:34:12.565Z,13.43
2019-04-06T22:36:42.422Z,13.97
2019-04-06T22:39:12.251Z,13.13
2019-04-06T22:41:42.252Z,13.20
2019-04-06T22:44:11.930Z,12.73
2019-04-06T22:46:41.852Z,13.83
2019-04-06T22:49:11.508Z,12.70
2019-04-06T22:51:41.192Z,13.53
2019-04-06T22:54:10.914Z,14.10
2019-04-06T22:56:40.534Z,14.10
2019-04-06T22:59:11.199Z,15.20
2019-04-06T23:01:41.850Z,14.40
2019-04-06T23:04:28.718Z,14.17
2019-04-06T23:07:00.682Z,14.13
2019-04-06T23:09:30.869Z,14.23
2019-04-06T23:12:00.757Z,14.70
2019-04-06T23:14:30.483Z,14.27
2019-04-06T23:17:00.148Z,13.87
2019-04-06T23:19:31.343Z,14.23
2019-04-06T23:22:01.119Z,14.77
2019-04-06T23:24:30.801Z,15.27
2019-04-06T23:27:00.317Z,14.37
2019-04-06T23:29:30.099Z,14.20
2019-04-06T23:31:59.924Z,15.17
2019-04-06T23:34:29.460Z,15.70
2019-04-06T23:36:59.158Z,14.90
2019-04-06T23:39:28.746Z,13.87
2019-04-06T23:41:58.893Z,14.60
2019-04-06T23:44:28.770Z,14.40
2019-04-06T23:46:58.803Z,14.60
2019-04-06T23:49:29.164Z,15.07
2019-04-06T23:51:58.919Z,14.73
2019-04-06T23:54:28.855Z,15.23
2019-04-06T23:56:59.162Z,16.07
2019-04-06T23:59:28.800Z,14.77
